createdAt,value
2023-04-03T00:02:26.918Z,100022.84
2023-04-03T00:04:58.631Z,100021.53
2023-04-03T00:07:30.372Z,100018.06
2023-04-03T00:10:03.176Z,100023.09
2023-04-03T00:12:34.996Z,100026.75
2023-04-03T00:15:08.291Z,100032.72
2023-04-03T00:17:40.410Z,100028.91
2023-04-03T00:20:12.465Z,100026.44
2023-04-03T00:22:44.196Z,100024.13
2023-04-03T00:25:16.181Z,100028.66
2023-04-03T00:27:48.028Z,100021.59
2023-04-03T00:30:23.638Z,100027.91
2023-04-03T00:32:55.932Z,100031.13
2023-04-03T00:35:28.290Z,100031.84
2023-04-03T00:38:03.198Z,100027.56
2023-04-03T00:40:43.418Z,100033.06
2023-04-03T00:43:27.455Z,100033.06
2023-04-03T00:46:00.871Z,100031.38
2023-04-03T00:48:36.819Z,100033.16
2023-04-03T00:51:12.246Z,100047.53
2023-04-03T00:53:58.930Z,100039.56
2023-04-03T00:56:32.119Z,100037.66
2023-04-03T00:59:11.357Z,100041.22
2023-04-03T01:01:43.929Z,100048.47
2023-04-03T01:04:37.897Z,100048.47
2023-04-03T01:07:16.330Z,100056.41
2023-04-03T01:09:49.748Z,100053.09
2023-04-03T01:12:27.824Z,100055.47
2023-04-03T01:15:07.340Z,100050.97
2023-04-03T01:17:47.161Z,100055.38
2023-04-03T01:20:36.234Z,100060.72
2023-04-03T01:23:28.120Z,100057.94
2023-04-03T01:26:00.148Z,100065.63
2023-04-03T01:28:34.836Z,100056.22
2023-04-03T01:31:06.523Z,100059.06
2023-04-03T01:33:39.922Z,100062.59
2023-04-03T01:36:25.513Z,100069.75
2023-04-03T01:39:00.216Z,100069.66
2023-04-03T01:41:32.446Z,100079.56
2023-04-03T01:44:13.694Z,100083.41
2023-04-03T01:46:45.742Z,100089.72
2023-04-03T01:49:17.519Z,100091.09
2023-04-03T01:51:49.773Z,100091.00
2023-04-03T01:54:21.634Z,100102.59
2023-04-03T01:56:53.451Z,100113.72
2023-04-03T01:59:26.519Z,100109.50
2023-04-03T02:01:58.492Z,100110.47
2023-04-03T02:04:30.364Z,100112.69
2023-04-03T02:07:02.138Z,100122.19
2023-04-03T02:09:34.176Z,100119.25
2023-04-03T02:12:06.077Z,100127.28
2023-04-03T02:14:38.356Z,100122.47
2023-04-03T02:17:10.021Z,100125.41
2023-04-03T02:19:41.948Z,100132.63
2023-04-03T02:22:13.665Z,100128.75
2023-04-03T02:24:45.697Z,100145.91
2023-04-03T02:27:17.438Z,100141.91
2023-04-03T02:29:49.259Z,100141.19
2023-04-03T02:32:21.079Z,100138.88
2023-04-03T02:34:53.159Z,100128.53
2023-04-03T02:37:24.950Z,100135.81
2023-04-03T02:39:59.062Z,100130.25
2023-04-03T02:42:33.335Z,100140.16
2023-04-03T02:45:06.132Z,100145.59
2023-04-03T02:47:38.305Z,100154.00
2023-04-03T02:50:10.372Z,100153.47
2023-04-03T02:52:42.164Z,100154.88
2023-04-03T02:55:16.481Z,100151.00
2023-04-03T02:57:49.595Z,100157.00
2023-04-03T03:00:21.576Z,100155.16
2023-04-03T03:02:53.279Z,100164.19
2023-04-03T03:05:25.084Z,100166.34
2023-04-03T03:07:56.891Z,100171.28
2023-04-03T03:10:28.723Z,100163.56
2023-04-03T03:13:00.521Z,100169.72
2023-04-03T03:15:32.244Z,100176.78
2023-04-03T03:18:04.134Z,100170.38
2023-04-03T03:20:36.140Z,100171.38
2023-04-03T03:23:08.311Z,100177.16
2023-04-03T03:25:42.960Z,100174.94
2023-04-03T03:28:14.621Z,100183.00
2023-04-03T03:30:46.443Z,100185.25
2023-04-03T03:33:19.889Z,100183.28
2023-04-03T03:35:52.804Z,100184.47
2023-04-03T03:38:24.932Z,100187.66
2023-04-03T03:40:56.695Z,100190.53
2023-04-03T03:43:29.734Z,100189.00
2023-04-03T03:46:01.552Z,100193.72
2023-04-03T03:48:33.595Z,100195.19
2023-04-03T03:51:05.510Z,100196.19
2023-04-03T03:53:41.192Z,100198.81
2023-04-03T03:56:18.022Z,100196.97
2023-04-03T03:58:51.079Z,100190.84
2023-04-03T04:01:24.151Z,100196.03
2023-04-03T04:03:57.055Z,100203.28
2023-04-03T04:06:32.837Z,100201.03
2023-04-03T04:09:12.815Z,100196.09
2023-04-03T04:11:44.629Z,100209.25
2023-04-03T04:14:17.677Z,100212.63
2023-04-03T04:16:49.932Z,100211.88
2023-04-03T04:19:26.773Z,100219.59
2023-04-03T04:21:58.695Z,100219.59
2023-04-03T04:24:30.584Z,100219.09
2023-04-03T04:27:02.839Z,100223.53
2023-04-03T04:29:38.225Z,100219.44
2023-04-03T04:32:15.015Z,100223.81
2023-04-03T04:34:46.694Z,100230.75
2023-04-03T04:37:18.551Z,100229.91
2023-04-03T04:39:52.561Z,100232.44
2023-04-03T04:42:24.836Z,100237.31
2023-04-03T04:44:56.682Z,100236.47
2023-04-03T04:47:30.024Z,100248.81
2023-04-03T04:50:01.883Z,100243.41
2023-04-03T04:52:34.321Z,100241.94
2023-04-03T04:55:06.551Z,100243.19
2023-04-03T04:57:40.345Z,100247.72
2023-04-03T05:00:14.132Z,100247.81
2023-04-03T05:02:45.996Z,100249.31
2023-04-03T05:05:20.393Z,100253.50
2023-04-03T05:07:52.431Z,100252.59
2023-04-03T05:10:24.419Z,100248.47
2023-04-03T05:12:56.185Z,100252.72
2023-04-03T05:15:28.141Z,100254.00
2023-04-03T05:18:00.752Z,100242.53
2023-04-03T05:20:34.200Z,100253.91
2023-04-03T05:23:06.038Z,100253.00
2023-04-03T05:25:40.443Z,100251.97
2023-04-03T05:28:14.193Z,100253.38
2023-04-03T05:30:46.206Z,100264.69
2023-04-03T05:33:18.091Z,100253.31
2023-04-03T05:35:55.534Z,100259.59
2023-04-03T05:38:33.200Z,100265.75
2023-04-03T05:41:06.199Z,100265.03
2023-04-03T05:43:40.065Z,100269.94
2023-04-03T05:46:18.071Z,100271.09
2023-04-03T05:48:52.682Z,100272.78
2023-04-03T05:51:31.099Z,100277.59
2023-04-03T05:54:14.727Z,100289.59
2023-04-03T05:56:47.051Z,100291.50
2023-04-03T05:59:20.378Z,100292.13
2023-04-03T06:01:53.875Z,100284.78
2023-04-03T06:04:27.364Z,100293.63
2023-04-03T06:07:02.301Z,100297.53
2023-04-03T06:09:34.578Z,100297.19
2023-04-03T06:12:06.777Z,100301.72
2023-04-03T06:14:38.558Z,100306.72
2023-04-03T06:17:10.714Z,100300.53
2023-04-03T06:19:42.630Z,100301.31
2023-04-03T06:22:15.179Z,100304.94
2023-04-03T06:24:47.596Z,100311.06
2023-04-03T06:27:19.413Z,100301.06
2023-04-03T06:29:51.457Z,100314.28
2023-04-03T06:32:23.204Z,100312.53
2023-04-03T06:34:56.560Z,100325.00
2023-04-03T06:37:29.872Z,100318.13
2023-04-03T06:40:02.447Z,100324.00
2023-04-03T06:42:34.174Z,100325.69
2023-04-03T06:45:16.529Z,100313.75
2023-04-03T06:47:48.358Z,100321.50
2023-04-03T06:50:20.816Z,100328.13
2023-04-03T06:52:52.638Z,100331.38
2023-04-03T06:55:24.483Z,100329.94
2023-04-03T06:57:56.304Z,100326.69
2023-04-03T07:00:28.734Z,100330.97
2023-04-03T07:03:03.924Z,100330.97
2023-04-03T07:05:37.049Z,100325.53
2023-04-03T07:08:09.047Z,100330.59
2023-04-03T07:10:41.003Z,100329.53
2023-04-03T07:13:12.857Z,100336.38
2023-04-03T07:15:45.105Z,100342.41
2023-04-03T07:18:17.959Z,100336.75
2023-04-03T07:20:49.684Z,100333.13
2023-04-03T07:23:21.459Z,100334.31
2023-04-03T07:25:54.024Z,100336.97
2023-04-03T07:28:26.394Z,100341.41
2023-04-03T07:31:04.900Z,100338.56
2023-04-03T07:33:37.058Z,100340.19
2023-04-03T07:36:09.446Z,100339.50
2023-04-03T07:38:41.588Z,100342.03
2023-04-03T07:41:16.524Z,100340.00
2023-04-03T07:43:48.253Z,100337.03
2023-04-03T07:46:20.163Z,100341.69
2023-04-03T07:48:52.012Z,100340.63
2023-04-03T07:51:25.153Z,100355.19
2023-04-03T07:53:58.121Z,100350.13
2023-04-03T07:56:30.056Z,100344.94
2023-04-03T07:59:01.825Z,100342.41
2023-04-03T08:01:34.783Z,100347.50
2023-04-03T08:04:07.929Z,100361.25
2023-04-03T08:06:46.350Z,100348.03
2023-04-03T08:09:19.680Z,100346.47
2023-04-03T08:11:54.207Z,100343.00
2023-04-03T08:14:27.283Z,100348.28
2023-04-03T08:16:59.451Z,100360.22
2023-04-03T08:19:32.431Z,100359.91
2023-04-03T08:22:04.973Z,100360.06
2023-04-03T08:24:39.104Z,100349.31
2023-04-03T08:27:11.092Z,100355.63
2023-04-03T08:29:42.880Z,100356.75
2023-04-03T08:32:14.709Z,100356.44
2023-04-03T08:34:47.196Z,100364.69
2023-04-03T08:37:19.018Z,100361.81
2023-04-03T08:39:51.141Z,100360.09
2023-04-03T08:42:50.231Z,100348.84
2023-04-03T08:45:51.246Z,100367.94
2023-04-03T08:48:28.868Z,100357.81
2023-04-03T08:51:12.231Z,100355.56
2023-04-03T08:53:57.416Z,100354.31
2023-04-03T08:56:31.105Z,100353.50
2023-04-03T08:59:14.175Z,100349.69
2023-04-03T09:01:47.051Z,100363.75
2023-04-03T09:04:20.188Z,100357.19
2023-04-03T09:06:59.861Z,100359.00
2023-04-03T09:09:42.855Z,100363.03
2023-04-03T09:12:33.091Z,100357.47
2023-04-03T09:15:24.799Z,100345.69
2023-04-03T09:18:06.213Z,100360.69
2023-04-03T09:20:59.648Z,100378.88
2023-04-03T09:23:34.294Z,100371.81
2023-04-03T09:26:16.370Z,100377.97
2023-04-03T09:28:50.743Z,100373.31
2023-04-03T09:31:26.054Z,100378.75
2023-04-03T09:34:00.539Z,100376.09
2023-04-03T09:36:48.039Z,100383.38
2023-04-03T09:39:22.876Z,100374.13
2023-04-03T09:42:04.717Z,100371.44
2023-04-03T09:44:39.220Z,100382.91
2023-04-03T09:47:39.177Z,100375.41
2023-04-03T09:50:16.978Z,100376.03
2023-04-03T09:52:52.923Z,100366.69
2023-04-03T09:55:29.611Z,100366.84
2023-04-03T09:58:04.325Z,100363.59
2023-04-03T10:00:40.826Z,100373.16
2023-04-03T10:03:35.763Z,100370.41
2023-04-03T10:06:25.354Z,100379.41
2023-04-03T10:09:05.520Z,100368.81
2023-04-03T10:11:37.572Z,100369.38
2023-04-03T10:14:18.418Z,100369.28
2023-04-03T10:17:02.313Z,100382.09
2023-04-03T10:19:44.621Z,100375.94
2023-04-03T10:22:41.662Z,100372.22
2023-04-03T10:25:45.993Z,100372.94
2023-04-03T10:28:36.918Z,100366.75
2023-04-03T10:31:23.128Z,100359.84
2023-04-03T10:33:57.477Z,100347.09
2023-04-03T10:36:38.486Z,100358.84
2023-04-03T10:39:32.898Z,100350.31
2023-04-03T10:42:17.658Z,100355.75
2023-04-03T10:45:22.419Z,100351.25
2023-04-03T10:47:56.819Z,100360.84
2023-04-03T10:50:46.923Z,100356.38
2023-04-03T10:53:51.350Z,100347.41
2023-04-03T10:57:04.593Z,100360.34
2023-04-03T10:59:52.528Z,100356.94
2023-04-03T11:02:27.914Z,100342.38
2023-04-03T11:05:14.952Z,100346.44
2023-04-03T11:07:52.472Z,100351.47
2023-04-03T11:10:36.628Z,100355.88
2023-04-03T11:13:34.437Z,100346.69
2023-04-03T11:16:07.499Z,100345.28
2023-04-03T11:19:04.625Z,100344.06
2023-04-03T11:21:44.272Z,100344.53
2023-04-03T11:24:30.852Z,100348.13
2023-04-03T11:27:06.330Z,100346.56
2023-04-03T11:29:41.945Z,100343.34
2023-04-03T11:32:39.801Z,100343.13
2023-04-03T11:35:13.121Z,100343.91
2023-04-03T11:37:51.981Z,100335.81
2023-04-03T11:40:29.126Z,100333.66
2023-04-03T11:43:00.772Z,100328.03
2023-04-03T11:45:57.222Z,100314.31
2023-04-03T11:48:33.070Z,100320.75
2023-04-03T11:51:13.610Z,100324.84
2023-04-03T11:53:45.844Z,100318.78
2023-04-03T11:56:31.634Z,100313.75
2023-04-03T11:59:06.087Z,100321.88
2023-04-03T12:01:50.027Z,100314.84
2023-04-03T12:04:25.111Z,100314.09
2023-04-03T12:07:19.964Z,100308.03
2023-04-03T12:09:51.711Z,100310.06
2023-04-03T12:12:36.972Z,100308.75
2023-04-03T12:15:42.275Z,100308.72
2023-04-03T12:18:33.515Z,100302.97
2023-04-03T12:21:05.396Z,100304.97
2023-04-03T12:24:08.510Z,100298.00
2023-04-03T12:27:01.643Z,100297.16
2023-04-03T12:29:33.434Z,100304.69
2023-04-03T12:32:14.281Z,100303.63
2023-04-03T12:35:04.785Z,100298.69
2023-04-03T12:38:04.879Z,100296.06
2023-04-03T12:40:42.635Z,100304.56
2023-04-03T12:43:39.078Z,100294.28
2023-04-03T12:46:17.559Z,100299.44
2023-04-03T12:48:56.018Z,100287.03
2023-04-03T12:51:36.683Z,100290.03
2023-04-03T12:54:17.737Z,100284.53
2023-04-03T12:56:49.622Z,100285.13
2023-04-03T12:59:27.284Z,100286.81
2023-04-03T13:02:01.698Z,100280.09
2023-04-03T13:04:33.524Z,100277.63
2023-04-03T13:07:05.578Z,100298.97
2023-04-03T13:09:37.473Z,100289.06
2023-04-03T13:12:16.665Z,100291.78
2023-04-03T13:15:00.207Z,100286.22
2023-04-03T13:17:33.136Z,100288.47
2023-04-03T13:20:28.064Z,100290.84
2023-04-03T13:23:05.489Z,100288.34
2023-04-03T13:25:43.263Z,100286.34
2023-04-03T13:28:23.118Z,100287.13
2023-04-03T13:31:21.414Z,100288.34
2023-04-03T13:34:07.700Z,100290.59
2023-04-03T13:37:04.223Z,100283.09
2023-04-03T13:42:30.761Z,100275.47
2023-04-03T13:45:21.124Z,100278.22
2023-04-03T13:47:56.412Z,100287.38
2023-04-03T13:50:30.020Z,100282.63
2023-04-03T13:53:14.748Z,100289.66
2023-04-03T13:55:59.913Z,100278.41
2023-04-03T13:58:33.328Z,100281.28
2023-04-03T14:01:10.897Z,100276.66
2023-04-03T14:03:52.718Z,100267.19
2023-04-03T14:06:24.830Z,100265.91
2023-04-03T14:08:56.650Z,100277.47
2023-04-03T14:11:31.221Z,100272.69
2023-04-03T14:14:12.531Z,100275.22
2023-04-03T14:16:48.628Z,100276.09
2023-04-03T14:19:29.223Z,100271.16
2023-04-03T14:22:04.772Z,100268.28
2023-04-03T14:24:36.556Z,100270.06
2023-04-03T14:27:27.856Z,100272.47
2023-04-03T14:30:00.181Z,100268.03
2023-04-03T14:32:31.993Z,100272.94
2023-04-03T14:35:04.257Z,100271.81
2023-04-03T14:37:36.411Z,100273.09
2023-04-03T14:40:10.357Z,100276.06
2023-04-03T14:42:42.166Z,100266.13
2023-04-03T14:45:14.529Z,100274.47
2023-04-03T14:47:54.939Z,100269.72
2023-04-03T14:50:31.674Z,100262.72
2023-04-03T14:53:03.716Z,100277.84
2023-04-03T14:55:36.209Z,100271.47
2023-04-03T14:58:13.080Z,100268.66
2023-04-03T15:00:45.322Z,100271.00
2023-04-03T15:03:19.755Z,100273.63
2023-04-03T15:05:51.639Z,100262.78
2023-04-03T15:08:30.504Z,100276.72
2023-04-03T15:11:03.631Z,100271.72
2023-04-03T15:13:35.581Z,100273.16
2023-04-03T15:16:20.633Z,100274.41
2023-04-03T15:18:52.456Z,100281.47
2023-04-03T15:21:24.237Z,100284.94
2023-04-03T15:23:55.975Z,100280.53
2023-04-03T15:26:27.805Z,100285.78
2023-04-03T15:28:59.703Z,100289.38
2023-04-03T15:31:32.559Z,100293.09
2023-04-03T15:34:04.451Z,100285.53
2023-04-03T15:36:36.235Z,100285.22
2023-04-03T15:39:10.857Z,100277.69
2023-04-03T15:41:43.100Z,100293.13
2023-04-03T15:44:14.842Z,100294.56
2023-04-03T15:46:52.403Z,100288.41
2023-04-03T15:49:24.457Z,100295.91
2023-04-03T15:51:56.623Z,100307.50
2023-04-03T15:54:30.489Z,100300.34
2023-04-03T15:57:02.379Z,100304.16
2023-04-03T15:59:34.348Z,100313.81
2023-04-03T16:02:08.778Z,100298.09
2023-04-03T16:04:41.291Z,100304.19
2023-04-03T16:07:13.080Z,100301.88
2023-04-03T16:09:44.828Z,100300.00
2023-04-03T16:12:16.587Z,100300.84
2023-04-03T16:14:48.285Z,100306.28
2023-04-03T16:17:20.053Z,100292.88
2023-04-03T16:19:53.137Z,100298.41
2023-04-03T16:22:26.194Z,100297.69
2023-04-03T16:25:00.108Z,100305.03
2023-04-03T16:27:32.043Z,100306.81
2023-04-03T16:30:04.170Z,100311.00
2023-04-03T16:32:37.298Z,100316.25
2023-04-03T16:35:11.977Z,100312.09
2023-04-03T16:37:43.967Z,100318.03
2023-04-03T16:40:15.769Z,100315.75
2023-04-03T16:42:50.602Z,100320.03
2023-04-03T16:45:22.874Z,100320.66
2023-04-03T16:47:54.891Z,100317.28
2023-04-03T16:50:26.745Z,100319.53
2023-04-03T16:52:58.640Z,100326.22
2023-04-03T16:55:30.622Z,100320.66
2023-04-03T16:58:02.448Z,100323.59
2023-04-03T17:00:35.026Z,100330.09
2023-04-03T17:03:06.880Z,100319.72
2023-04-03T17:05:38.978Z,100319.13
2023-04-03T17:08:10.988Z,100321.31
2023-04-03T17:10:42.757Z,100313.97
2023-04-03T17:13:14.560Z,100323.72
2023-04-03T17:15:46.430Z,100314.91
2023-04-03T17:18:18.170Z,100321.53
2023-04-03T17:20:49.920Z,100322.47
2023-04-03T17:23:21.698Z,100321.72
2023-04-03T17:25:55.279Z,100320.16
2023-04-03T17:28:29.001Z,100319.00
2023-04-03T17:31:02.250Z,100321.63
2023-04-03T17:33:34.857Z,100330.31
2023-04-03T17:36:07.889Z,100324.44
2023-04-03T17:38:39.774Z,100328.63
2023-04-03T17:41:11.655Z,100326.75
2023-04-03T17:43:43.459Z,100331.97
2023-04-03T17:46:17.581Z,100324.97
2023-04-03T17:48:49.936Z,100330.38
2023-04-03T17:51:25.379Z,100325.56
2023-04-03T17:53:57.165Z,100327.66
2023-04-03T17:56:28.912Z,100320.56
2023-04-03T17:59:02.747Z,100325.56
2023-04-03T18:01:36.378Z,100326.63
2023-04-03T18:04:08.160Z,100326.09
2023-04-03T18:06:39.789Z,100318.97
2023-04-03T18:09:18.464Z,100327.75
2023-04-03T18:11:51.558Z,100331.94
2023-04-03T18:14:26.981Z,100335.50
2023-04-03T18:16:58.900Z,100341.22
2023-04-03T18:19:34.328Z,100337.06
2023-04-03T18:22:14.594Z,100339.16
2023-04-03T18:24:46.931Z,100339.97
2023-04-03T18:27:21.191Z,100338.09
2023-04-03T18:30:02.774Z,100342.59
2023-04-03T18:32:34.861Z,100345.50
2023-04-03T18:35:09.200Z,100338.63
2023-04-03T18:37:41.494Z,100347.47
2023-04-03T18:40:15.810Z,100343.28
2023-04-03T18:42:47.641Z,100349.47
2023-04-03T18:45:23.544Z,100350.69
2023-04-03T18:47:56.934Z,100354.03
2023-04-03T18:50:29.436Z,100347.66
2023-04-03T18:53:01.162Z,100351.88
2023-04-03T18:55:32.973Z,100348.50
2023-04-03T18:58:04.729Z,100354.13
2023-04-03T19:00:38.864Z,100354.56
2023-04-03T19:03:12.775Z,100351.13
2023-04-03T19:05:44.903Z,100356.78
2023-04-03T19:08:16.804Z,100356.69
2023-04-03T19:10:48.564Z,100355.75
2023-04-03T19:13:20.357Z,100356.91
2023-04-03T19:15:52.754Z,100358.78
2023-04-03T19:18:26.285Z,100357.09
2023-04-03T19:20:59.196Z,100362.53
2023-04-03T19:23:30.965Z,100355.19
2023-04-03T19:26:08.111Z,100363.72
2023-04-03T19:28:41.691Z,100370.19
2023-04-03T19:31:16.226Z,100373.19
2023-04-03T19:33:48.360Z,100360.84
2023-04-03T19:36:20.504Z,100372.50
2023-04-03T19:38:53.083Z,100368.97
2023-04-03T19:41:27.427Z,100377.28
2023-04-03T19:43:59.220Z,100371.22
2023-04-03T19:46:31.397Z,100372.19
2023-04-03T19:49:04.673Z,100374.59
2023-04-03T19:51:37.455Z,100375.72
2023-04-03T19:54:09.199Z,100377.88
2023-04-03T19:56:43.009Z,100376.59
2023-04-03T19:59:16.262Z,100366.78
2023-04-03T20:01:48.222Z,100370.81
2023-04-03T20:04:20.018Z,100364.63
2023-04-03T20:06:53.877Z,100368.19
2023-04-03T20:09:28.249Z,100366.50
2023-04-03T20:12:01.706Z,100371.44
2023-04-03T20:14:33.923Z,100371.84
2023-04-03T20:17:05.949Z,100369.22
2023-04-03T20:19:39.706Z,100375.50
2023-04-03T20:22:11.699Z,100373.72
2023-04-03T20:24:43.478Z,100374.72
2023-04-03T20:27:16.438Z,100369.13
2023-04-03T20:29:48.615Z,100372.50
2023-04-03T20:32:21.537Z,100370.19
2023-04-03T20:35:03.428Z,100371.28
2023-04-03T20:37:36.836Z,100367.66
2023-04-03T20:40:09.937Z,100366.75
2023-04-03T20:42:41.716Z,100370.56
2023-04-03T20:45:14.292Z,100356.03
2023-04-03T20:47:46.649Z,100370.00
2023-04-03T20:50:20.744Z,100364.78
2023-04-03T20:52:52.540Z,100364.78
2023-04-03T20:55:24.731Z,100353.31
2023-04-03T20:58:01.146Z,100352.38
2023-04-03T21:00:33.497Z,100350.91
2023-04-03T21:03:06.323Z,100353.69
2023-04-03T21:05:38.331Z,100353.69
2023-04-03T21:08:47.940Z,100339.44
2023-04-03T21:11:57.123Z,100347.00
2023-04-03T21:15:06.360Z,100349.22
2023-04-03T21:17:38.210Z,100345.06
2023-04-03T21:20:09.900Z,100348.38
2023-04-03T21:22:44.760Z,100349.31
2023-04-03T21:25:16.358Z,100351.94
2023-04-03T21:27:48.254Z,100348.38
2023-04-03T21:30:19.994Z,100350.28
2023-04-03T21:32:51.797Z,100355.00
2023-04-03T21:35:23.732Z,100351.09
2023-04-03T21:37:55.492Z,100352.09
2023-04-03T21:40:27.220Z,100356.69
2023-04-03T21:42:58.989Z,100356.59
2023-04-03T21:45:30.750Z,100346.63
2023-04-03T21:48:03.934Z,100350.31
2023-04-03T21:50:37.068Z,100351.00
2023-04-03T21:53:08.893Z,100354.72
2023-04-03T21:55:40.965Z,100358.91
2023-04-03T21:58:15.831Z,100359.13
2023-04-03T22:00:47.574Z,100361.81
2023-04-03T22:03:23.529Z,100365.16
2023-04-03T22:05:59.201Z,100354.72
2023-04-03T22:08:31.188Z,100364.13
2023-04-03T22:11:14.637Z,100360.38
2023-04-03T22:13:46.642Z,100353.41
2023-04-03T22:16:18.596Z,100358.44
2023-04-03T22:18:53.341Z,100362.63
2023-04-03T22:21:25.608Z,100352.28
2023-04-03T22:23:57.307Z,100351.34
2023-04-03T22:26:29.289Z,100348.56
2023-04-03T22:29:01.378Z,100345.66
2023-04-03T22:31:33.197Z,100349.31
2023-04-03T22:34:05.169Z,100352.84
2023-04-03T22:36:36.935Z,100342.41
2023-04-03T22:39:10.781Z,100346.94
2023-04-03T22:41:45.247Z,100353.69
2023-04-03T22:44:17.935Z,100344.56
2023-04-03T22:46:49.704Z,100344.72
2023-04-03T22:49:21.810Z,100345.69
2023-04-03T22:51:53.552Z,100342.97
2023-04-03T22:54:25.411Z,100350.16
2023-04-03T22:56:57.432Z,100342.50
2023-04-03T22:59:29.319Z,100340.72
2023-04-03T23:02:01.428Z,100339.06
2023-04-03T23:04:33.198Z,100334.69
2023-04-03T23:07:05.248Z,100334.50
2023-04-03T23:09:37.128Z,100333.44
2023-04-03T23:12:09.883Z,100334.59
2023-04-03T23:14:41.618Z,100330.31
2023-04-03T23:17:13.279Z,100318.09
2023-04-03T23:19:44.997Z,100320.41
2023-04-03T23:22:16.691Z,100321.25
2023-04-03T23:24:48.408Z,100321.47
2023-04-03T23:27:20.091Z,100317.09
2023-04-03T23:29:51.835Z,100321.16
2023-04-03T23:32:23.517Z,100317.16
2023-04-03T23:34:55.164Z,100318.31
2023-04-03T23:37:27.352Z,100317.47
2023-04-03T23:39:59.103Z,100310.00
2023-04-03T23:42:31.359Z,100306.28
2023-04-03T23:45:03.075Z,100312.88
2023-04-03T23:47:36.128Z,100302.25
2023-04-03T23:50:08.362Z,100298.44
2023-04-03T23:52:40.112Z,100297.59
2023-04-03T23:55:11.769Z,100288.09
2023-04-03T23:57:43.551Z,100287.44
